sensor_id;sensor_type;location;lat;lon;timestamp;pressure;altitude;pressure_sealevel;temperature;humidity
11038;BME280;5572;49.540;11.932;2023-01-25T00:00:47;98020.75;;;0.53;100.00
11038;BME280;5572;49.540;11.932;2023-01-25T00:03:15;98016.00;;;0.49;100.00
11038;BME280;5572;49.540;11.932;2023-01-25T00:05:43;98015.34;;;0.47;100.00
11038;BME280;5572;49.540;11.932;2023-01-25T00:08:11;98015.28;;;0.40;100.00
11038;BME280;5572;49.540;11.932;2023-01-25T00:10:39;98025.41;;;0.51;100.00
11038;BME280;5572;49.540;11.932;2023-01-25T00:13:08;98021.91;;;0.51;100.00
11038;BME280;5572;49.540;11.932;2023-01-25T00:15:36;98033.19;;;0.53;100.00
11038;BME280;5572;49.540;11.932;2023-01-25T00:18:04;98027.06;;;0.52;100.00
11038;BME280;5572;49.540;11.932;2023-01-25T00:20:31;98034.09;;;0.60;100.00
11038;BME280;5572;49.540;11.932;2023-01-25T00:22:59;98027.06;;;0.52;100.00
11038;BME280;5572;49.540;11.932;2023-01-25T00:25:27;98032.81;;;0.56;100.00
11038;BME280;5572;49.540;11.932;2023-01-25T00:27:55;98024.00;;;0.55;100.00
11038;BME280;5572;49.540;11.932;2023-01-25T00:30:25;98037.94;;;0.57;100.00
11038;BME280;5572;49.540;11.932;2023-01-25T00:32:57;98041.25;;;0.59;100.00
11038;BME280;5572;49.540;11.932;2023-01-25T00:35:30;98041.03;;;0.61;100.00
11038;BME280;5572;49.540;11.932;2023-01-25T00:38:00;98033.91;;;0.61;100.00
11038;BME280;5572;49.540;11.932;2023-01-25T00:40:29;98036.94;;;0.58;100.00
11038;BME280;5572;49.540;11.932;2023-01-25T00:42:57;98033.47;;;0.58;100.00
11038;BME280;5572;49.540;11.932;2023-01-25T00:45:27;98045.78;;;0.65;100.00
11038;BME280;5572;49.540;11.932;2023-01-25T00:47:55;98042.69;;;0.62;100.00
11038;BME280;5572;49.540;11.932;2023-01-25T00:50:23;98032.56;;;0.51;100.00
11038;BME280;5572;49.540;11.932;2023-01-25T00:52:51;98058.84;;;0.60;100.00
11038;BME280;5572;49.540;11.932;2023-01-25T00:55:19;98052.53;;;0.61;100.00
11038;BME280;5572;49.540;11.932;2023-01-25T00:57:47;98038.38;;;0.61;100.00
11038;BME280;5572;49.540;11.932;2023-01-25T01:00:16;98036.50;;;0.55;100.00
11038;BME280;5572;49.540;11.932;2023-01-25T01:02:46;98043.31;;;0.64;100.00
11038;BME280;5572;49.540;11.932;2023-01-25T01:05:14;98043.59;;;0.69;100.00
11038;BME280;5572;49.540;11.932;2023-01-25T01:07:42;98034.09;;;0.60;100.00
11038;BME280;5572;49.540;11.932;2023-01-25T01:10:10;98045.03;;;0.71;100.00
11038;BME280;5572;49.540;11.932;2023-01-25T01:12:39;98052.25;;;0.77;100.00
11038;BME280;5572;49.540;11.932;2023-01-25T01:15:08;98036.84;;;0.73;100.00
11038;BME280;5572;49.540;11.932;2023-01-25T01:17:35;98031.88;;;0.63;100.00
11038;BME280;5572;49.540;11.932;2023-01-25T01:20:05;98049.06;;;0.67;100.00
11038;BME280;5572;49.540;11.932;2023-01-25T01:22:33;98045.78;;;0.65;100.00
11038;BME280;5572;49.540;11.932;2023-01-25T01:25:02;98046.81;;;0.64;100.00
11038;BME280;5572;49.540;11.932;2023-01-25T01:27:30;98039.41;;;0.60;100.00
11038;BME280;5572;49.540;11.932;2023-01-25T01:29:58;98053.22;;;0.70;100.00
11038;BME280;5572;49.540;11.932;2023-01-25T01:32:26;98014.44;;;0.61;100.00
11038;BME280;5572;49.540;11.932;2023-01-25T01:34:54;98023.84;;;0.57;100.00
11038;BME280;5572;49.540;11.932;2023-01-25T01:37:24;98037.31;;;0.55;100.00
11038;BME280;5572;49.540;11.932;2023-01-25T01:39:54;98057.84;;;0.61;100.00
11038;BME280;5572;49.540;11.932;2023-01-25T01:42:22;98043.66;;;0.54;100.00
11038;BME280;5572;49.540;11.932;2023-01-25T01:44:52;98073.44;;;0.64;100.00
11038;BME280;5572;49.540;11.932;2023-01-25T01:49:59;98058.53;;;0.49;100.00
11038;BME280;5572;49.540;11.932;2023-01-25T01:52:33;98066.69;;;0.47;100.00
11038;BME280;5572;49.540;11.932;2023-01-25T01:55:07;98078.81;;;0.50;100.00
11038;BME280;5572;49.540;11.932;2023-01-25T01:57:41;98074.53;;;0.55;100.00
11038;BME280;5572;49.540;11.932;2023-01-25T02:00:13;98076.03;;;0.58;100.00
11038;BME280;5572;49.540;11.932;2023-01-25T02:02:43;98065.38;;;0.58;100.00
11038;BME280;5572;49.540;11.932;2023-01-25T02:05:16;98088.63;;;0.70;100.00
11038;BME280;5572;49.540;11.932;2023-01-25T02:07:49;98066.75;;;0.54;100.00
11038;BME280;5572;49.540;11.932;2023-01-25T02:10:19;98062.78;;;0.43;100.00
11038;BME280;5572;49.540;11.932;2023-01-25T02:12:49;98054.59;;;0.45;100.00
11038;BME280;5572;49.540;11.932;2023-01-25T02:15:18;98069.78;;;0.51;100.00
11038;BME280;5572;49.540;11.932;2023-01-25T02:17:46;98080.19;;;0.67;100.00
11038;BME280;5572;49.540;11.932;2023-01-25T02:20:23;98080.38;;;0.65;100.00
11038;BME280;5572;49.540;11.932;2023-01-25T02:23:00;98077.84;;;0.57;100.00
11038;BME280;5572;49.540;11.932;2023-01-25T02:25:32;98091.66;;;0.67;100.00
11038;BME280;5572;49.540;11.932;2023-01-25T02:28:04;98060.00;;;0.51;100.00
11038;BME280;5572;49.540;11.932;2023-01-25T02:30:34;98066.97;;;0.52;100.00
11038;BME280;5572;49.540;11.932;2023-01-25T02:33:02;98072.91;;;0.54;100.00
11038;BME280;5572;49.540;11.932;2023-01-25T02:35:40;98078.97;;;0.48;100.00
11038;BME280;5572;49.540;11.932;2023-01-25T02:38:12;98075.50;;;0.48;100.00
11038;BME280;5572;49.540;11.932;2023-01-25T02:40:48;98097.09;;;0.59;100.00
11038;BME280;5572;49.540;11.932;2023-01-25T02:43:27;98097.09;;;0.59;100.00
11038;BME280;5572;49.540;11.932;2023-01-25T02:46:04;98080.19;;;0.46;100.00
11038;BME280;5572;49.540;11.932;2023-01-25T02:48:37;98092.47;;;0.47;100.00
11038;BME280;5572;49.540;11.932;2023-01-25T02:51:06;98073.50;;;0.50;100.00
11038;BME280;5572;49.540;11.932;2023-01-25T02:53:37;98067.13;;;0.51;100.00
11038;BME280;5572;49.540;11.932;2023-01-25T02:56:08;98091.78;;;0.59;100.00
11038;BME280;5572;49.540;11.932;2023-01-25T02:58:37;98073.03;;;0.46;100.00
11038;BME280;5572;49.540;11.932;2023-01-25T03:01:05;98085.81;;;0.57;100.00
11038;BME280;5572;49.540;11.932;2023-01-25T03:03:36;98066.25;;;0.44;100.00
11038;BME280;5572;49.540;11.932;2023-01-25T03:06:04;98074.09;;;0.52;100.00
11038;BME280;5572;49.540;11.932;2023-01-25T03:08:32;98068.78;;;0.52;100.00
11038;BME280;5572;49.540;11.932;2023-01-25T03:11:02;98075.31;;;0.49;100.00
11038;BME280;5572;49.540;11.932;2023-01-25T03:13:34;98087.31;;;0.60;100.00
11038;BME280;5572;49.540;11.932;2023-01-25T03:16:05;98066.06;;;0.45;100.00
11038;BME280;5572;49.540;11.932;2023-01-25T03:18:35;98077.19;;;0.55;100.00
11038;BME280;5572;49.540;11.932;2023-01-25T03:21:08;98081.78;;;0.61;100.00
11038;BME280;5572;49.540;11.932;2023-01-25T03:23:37;98062.44;;;0.53;100.00
11038;BME280;5572;49.540;11.932;2023-01-25T03:26:07;98076.25;;;0.63;100.00
11038;BME280;5572;49.540;11.932;2023-01-25T03:28:38;98075.63;;;0.61;100.00
11038;BME280;5572;49.540;11.932;2023-01-25T03:31:08;98071.88;;;0.55;100.00
11038;BME280;5572;49.540;11.932;2023-01-25T03:33:38;98046.38;;;0.40;100.00
11038;BME280;5572;49.540;11.932;2023-01-25T03:36:07;98054.41;;;0.46;100.00
11038;BME280;5572;49.540;11.932;2023-01-25T03:38:35;98055.88;;;0.49;100.00
11038;BME280;5572;49.540;11.932;2023-01-25T03:41:04;98046.00;;;0.43;100.00
11038;BME280;5572;49.540;11.932;2023-01-25T03:43:33;98044.16;;;0.43;100.00
11038;BME280;5572;49.540;11.932;2023-01-25T03:46:02;98039.44;;;0.39;100.00
11038;BME280;5572;49.540;11.932;2023-01-25T03:48:31;98049.72;;;0.48;100.00
11038;BME280;5572;49.540;11.932;2023-01-25T03:50:59;98031.03;;;0.42;100.00
11038;BME280;5572;49.540;11.932;2023-01-25T03:53:31;98036.19;;;0.43;100.00
11038;BME280;5572;49.540;11.932;2023-01-25T03:56:01;98045.41;;;0.47;100.00
11038;BME280;5572;49.540;11.932;2023-01-25T03:58:30;98031.25;;;0.40;100.00
11038;BME280;5572;49.540;11.932;2023-01-25T04:00:59;98022.69;;;0.45;100.00
11038;BME280;5572;49.540;11.932;2023-01-25T04:03:32;98010.22;;;0.45;100.00
11038;BME280;5572;49.540;11.932;2023-01-25T04:06:00;98013.34;;;0.49;100.00
11038;BME280;5572;49.540;11.932;2023-01-25T04:08:29;98026.56;;;0.63;100.00
11038;BME280;5572;49.540;11.932;2023-01-25T04:11:00;98012.81;;;0.60;100.00
11038;BME280;5572;49.540;11.932;2023-01-25T04:13:29;98006.22;;;0.56;100.00
11038;BME280;5572;49.540;11.932;2023-01-25T04:16:00;97989.84;;;0.52;100.00
11038;BME280;5572;49.540;11.932;2023-01-25T04:18:32;97992.72;;;0.57;100.00
11038;BME280;5572;49.540;11.932;2023-01-25T04:21:01;97973.66;;;0.54;100.00
11038;BME280;5572;49.540;11.932;2023-01-25T04:23:30;97965.00;;;0.45;100.00
11038;BME280;5572;49.540;11.932;2023-01-25T04:26:00;97958.72;;;0.53;100.00
11038;BME280;5572;49.540;11.932;2023-01-25T04:28:31;97954.72;;;0.63;100.00
11038;BME280;5572;49.540;11.932;2023-01-25T04:31:00;97930.91;;;0.49;100.00
11038;BME280;5572;49.540;11.932;2023-01-25T04:33:33;97930.69;;;0.50;100.00
11038;BME280;5572;49.540;11.932;2023-01-25T04:36:02;97920.38;;;0.41;100.00
11038;BME280;5572;49.540;11.932;2023-01-25T04:38:31;97935.44;;;0.55;100.00
11038;BME280;5572;49.540;11.932;2023-01-25T04:40:59;97923.09;;;0.47;100.00
11038;BME280;5572;49.540;11.932;2023-01-25T04:43:31;97913.72;;;0.51;100.00
11038;BME280;5572;49.540;11.932;2023-01-25T04:46:00;97894.03;;;0.46;100.00
11038;BME280;5572;49.540;11.932;2023-01-25T04:48:33;97898.13;;;0.48;100.00
11038;BME280;5572;49.540;11.932;2023-01-25T04:51:01;97871.31;;;0.43;100.00
11038;BME280;5572;49.540;11.932;2023-01-25T04:53:30;97878.13;;;0.52;100.00
11038;BME280;5572;49.540;11.932;2023-01-25T04:55:58;97862.56;;;0.49;100.00
11038;BME280;5572;49.540;11.932;2023-01-25T04:58:26;97838.16;;;0.39;100.00
11038;BME280;5572;49.540;11.932;2023-01-25T05:00:58;97827.09;;;0.36;100.00
11038;BME280;5572;49.540;11.932;2023-01-25T05:03:26;97823.41;;;0.37;100.00
11038;BME280;5572;49.540;11.932;2023-01-25T05:05:56;97822.81;;;0.41;100.00
11038;BME280;5572;49.540;11.932;2023-01-25T05:08:24;97819.34;;;0.41;100.00
11038;BME280;5572;49.540;11.932;2023-01-25T05:10:52;97803.16;;;0.36;100.00
11038;BME280;5572;49.540;11.932;2023-01-25T05:13:20;97806.50;;;0.44;100.00
11038;BME280;5572;49.540;11.932;2023-01-25T05:15:49;97795.22;;;0.42;100.00
11038;BME280;5572;49.540;11.932;2023-01-25T05:18:17;97783.16;;;0.46;100.00
11038;BME280;5572;49.540;11.932;2023-01-25T05:20:45;97774.34;;;0.39;100.00
11038;BME280;5572;49.540;11.932;2023-01-25T05:23:14;97780.97;;;0.56;100.00
11038;BME280;5572;49.540;11.932;2023-01-25T05:25:42;97761.66;;;0.41;100.00
11038;BME280;5572;49.540;11.932;2023-01-25T05:28:27;97742.84;;;0.43;100.00
11038;BME280;5572;49.540;11.932;2023-01-25T05:30:55;97758.72;;;0.64;100.00
11038;BME280;5572;49.540;11.932;2023-01-25T05:33:23;97746.19;;;0.51;100.00
11038;BME280;5572;49.540;11.932;2023-01-25T05:35:52;97742.72;;;0.57;100.00
11038;BME280;5572;49.540;11.932;2023-01-25T05:38:22;97742.94;;;0.62;100.00
11038;BME280;5572;49.540;11.932;2023-01-25T05:40:50;97722.03;;;0.53;100.00
11038;BME280;5572;49.540;11.932;2023-01-25T05:43:18;97710.34;;;0.47;100.00
11038;BME280;5572;49.540;11.932;2023-01-25T05:45:51;97699.09;;;0.39;100.00
11038;BME280;5572;49.540;11.932;2023-01-25T05:48:20;97705.44;;;0.44;100.00
11038;BME280;5572;49.540;11.932;2023-01-25T05:50:48;97710.16;;;0.49;100.00
11038;BME280;5572;49.540;11.932;2023-01-25T05:53:16;97688.25;;;0.40;100.00
11038;BME280;5572;49.540;11.932;2023-01-25T05:55:45;97683.72;;;0.41;100.00
11038;BME280;5572;49.540;11.932;2023-01-25T05:58:13;97675.97;;;0.39;100.00
11038;BME280;5572;49.540;11.932;2023-01-25T06:00:41;97666.16;;;0.40;100.00
11038;BME280;5572;49.540;11.932;2023-01-25T06:03:09;97664.13;;;0.48;100.00
11038;BME280;5572;49.540;11.932;2023-01-25T06:05:37;97666.22;;;0.59;100.00
11038;BME280;5572;49.540;11.932;2023-01-25T06:08:05;97641.81;;;0.43;100.00
11038;BME280;5572;49.540;11.932;2023-01-25T06:10:33;97633.22;;;0.41;100.00
11038;BME280;5572;49.540;11.932;2023-01-25T06:13:03;97629.56;;;0.48;100.00
11038;BME280;5572;49.540;11.932;2023-01-25T06:15:30;97621.16;;;0.45;100.00
11038;BME280;5572;49.540;11.932;2023-01-25T06:17:58;97626.28;;;0.46;100.00
11038;BME280;5572;49.540;11.932;2023-01-25T06:20:26;97613.41;;;0.43;100.00
11038;BME280;5572;49.540;11.932;2023-01-25T06:22:54;97615.47;;;0.48;100.00
11038;BME280;5572;49.540;11.932;2023-01-25T06:25:22;97609.72;;;0.51;100.00
11038;BME280;5572;49.540;11.932;2023-01-25T06:27:50;97592.94;;;0.44;100.00
11038;BME280;5572;49.540;11.932;2023-01-25T06:30:19;97579.84;;;0.36;100.00
11038;BME280;5572;49.540;11.932;2023-01-25T06:32:47;97587.00;;;0.48;100.00
11038;BME280;5572;49.540;11.932;2023-01-25T06:35:15;97580.88;;;0.48;100.00
11038;BME280;5572;49.540;11.932;2023-01-25T06:37:43;97575.78;;;0.53;100.00
11038;BME280;5572;49.540;11.932;2023-01-25T06:40:12;97564.31;;;0.46;100.00
11038;BME280;5572;49.540;11.932;2023-01-25T06:42:40;97570.06;;;0.56;100.00
11038;BME280;5572;49.540;11.932;2023-01-25T06:45:09;97571.28;;;0.53;100.00
11038;BME280;5572;49.540;11.932;2023-01-25T06:47:38;97551.63;;;0.48;100.00
11038;BME280;5572;49.540;11.932;2023-01-25T06:50:08;97551.44;;;0.49;100.00
11038;BME280;5572;49.540;11.932;2023-01-25T06:52:37;97553.28;;;0.49;100.00
11038;BME280;5572;49.540;11.932;2023-01-25T06:55:06;97538.97;;;0.50;100.00
11038;BME280;5572;49.540;11.932;2023-01-25T06:57:38;97518.28;;;0.52;100.00
11038;BME280;5572;49.540;11.932;2023-01-25T07:00:07;97519.50;;;0.43;100.00
11038;BME280;5572;49.540;11.932;2023-01-25T07:02:35;97513.56;;;0.41;100.00
11038;BME280;5572;49.540;11.932;2023-01-25T07:05:06;97495.78;;;0.35;100.00
11038;BME280;5572;49.540;11.932;2023-01-25T07:07:34;97496.41;;;0.43;100.00
11038;BME280;5572;49.540;11.932;2023-01-25T07:10:03;97507.47;;;0.47;100.00
11038;BME280;5572;49.540;11.932;2023-01-25T07:12:31;97487.41;;;0.44;100.00
11038;BME280;5572;49.540;11.932;2023-01-25T07:14:58;97488.84;;;0.40;100.00
11038;BME280;5572;49.540;11.932;2023-01-25T07:17:26;97495.19;;;0.52;100.00
11038;BME280;5572;49.540;11.932;2023-01-25T07:19:54;97480.88;;;0.53;100.00
11038;BME280;5572;49.540;11.932;2023-01-25T07:22:24;97476.97;;;0.56;100.00
11038;BME280;5572;49.540;11.932;2023-01-25T07:24:52;97463.91;;;0.48;100.00
11038;BME280;5572;49.540;11.932;2023-01-25T07:27:22;97475.53;;;0.66;100.00
11038;BME280;5572;49.540;11.932;2023-01-25T07:29:50;97448.94;;;0.40;100.00
11038;BME280;5572;49.540;11.932;2023-01-25T07:32:19;97450.59;;;0.41;100.00
11038;BME280;5572;49.540;11.932;2023-01-25T07:34:47;97438.94;;;0.36;100.00
11038;BME280;5572;49.540;11.932;2023-01-25T07:37:15;97449.75;;;0.47;100.00
11038;BME280;5572;49.540;11.932;2023-01-25T07:39:45;97447.31;;;0.46;100.00
11038;BME280;5572;49.540;11.932;2023-01-25T07:42:16;97444.66;;;0.52;100.00
11038;BME280;5572;49.540;11.932;2023-01-25T07:44:46;97447.50;;;0.64;100.00
11038;BME280;5572;49.540;11.932;2023-01-25T07:47:13;97423.97;;;0.67;100.00
11038;BME280;5572;49.540;11.932;2023-01-25T07:49:41;97427.88;;;0.65;100.00
11038;BME280;5572;49.540;11.932;2023-01-25T07:52:09;97423.78;;;0.62;100.00
11038;BME280;5572;49.540;11.932;2023-01-25T07:54:38;97419.50;;;0.48;100.00
11038;BME280;5572;49.540;11.932;2023-01-25T07:57:07;97430.13;;;0.61;100.00
11038;BME280;5572;49.540;11.932;2023-01-25T07:59:34;97421.31;;;0.61;100.00
11038;BME280;5572;49.540;11.932;2023-01-25T08:02:01;97420.91;;;0.57;100.00
11038;BME280;5572;49.540;11.932;2023-01-25T08:04:29;97419.72;;;0.53;100.00
11038;BME280;5572;49.540;11.932;2023-01-25T08:06:56;97417.22;;;0.65;100.00
11038;BME280;5572;49.540;11.932;2023-01-25T08:09:24;97409.69;;;0.42;100.00
11038;BME280;5572;49.540;11.932;2023-01-25T08:11:59;97403.13;;;0.32;100.00
11038;BME280;5572;49.540;11.932;2023-01-25T08:14:28;97430.53;;;0.58;100.00
11038;BME280;5572;49.540;11.932;2023-01-25T08:16:55;97413.16;;;0.43;100.00
11038;BME280;5572;49.540;11.932;2023-01-25T08:19:22;97415.81;;;0.49;100.00
11038;BME280;5572;49.540;11.932;2023-01-25T08:21:51;97418.47;;;0.49;100.00
11038;BME280;5572;49.540;11.932;2023-01-25T08:24:18;97422.56;;;0.65;100.00
11038;BME280;5572;49.540;11.932;2023-01-25T08:26:45;97405.78;;;0.58;100.00
11038;BME280;5572;49.540;11.932;2023-01-25T08:29:12;97391.88;;;0.56;100.00
11038;BME280;5572;49.540;11.932;2023-01-25T08:31:44;97418.47;;;0.62;100.00
11038;BME280;5572;49.540;11.932;2023-01-25T08:34:11;97404.97;;;0.51;100.00
11038;BME280;5572;49.540;11.932;2023-01-25T08:36:39;97407.63;;;0.64;100.00
11038;BME280;5572;49.540;11.932;2023-01-25T08:39:10;97393.53;;;0.50;100.00
11038;BME280;5572;49.540;11.932;2023-01-25T08:41:38;97389.84;;;0.64;100.00
11038;BME280;5572;49.540;11.932;2023-01-25T08:44:06;97389.63;;;0.46;100.00
11038;BME280;5572;49.540;11.932;2023-01-25T08:46:34;97391.06;;;0.49;100.00
11038;BME280;5572;49.540;11.932;2023-01-25T08:49:05;97388.78;;;0.65;100.00
11038;BME280;5572;49.540;11.932;2023-01-25T08:51:35;97371.63;;;0.61;100.00
11038;BME280;5572;49.540;11.932;2023-01-25T08:54:06;97380.78;;;0.65;100.00
11038;BME280;5572;49.540;11.932;2023-01-25T08:56:35;97360.38;;;0.59;100.00
11038;BME280;5572;49.540;11.932;2023-01-25T08:59:06;97373.66;;;0.59;100.00
11038;BME280;5572;49.540;11.932;2023-01-25T09:01:39;97346.69;;;0.49;100.00
11038;BME280;5572;49.540;11.932;2023-01-25T09:04:20;97361.78;;;0.55;100.00
11038;BME280;5572;49.540;11.932;2023-01-25T09:06:52;97345.03;;;0.48;100.00
11038;BME280;5572;49.540;11.932;2023-01-25T09:09:20;97343.38;;;0.60;100.00
11038;BME280;5572;49.540;11.932;2023-01-25T09:11:49;97342.75;;;0.65;100.00
11038;BME280;5572;49.540;11.932;2023-01-25T09:14:17;97338.47;;;0.57;100.00
11038;BME280;5572;49.540;11.932;2023-01-25T09:16:47;97335.19;;;0.62;100.00
11038;BME280;5572;49.540;11.932;2023-01-25T09:19:22;97330.31;;;0.52;100.00
11038;BME280;5572;49.540;11.932;2023-01-25T09:22:07;97330.88;;;0.61;100.00
11038;BME280;5572;49.540;11.932;2023-01-25T09:24:48;97329.91;;;0.49;100.00
11038;BME280;5572;49.540;11.932;2023-01-25T09:27:18;97331.72;;;0.55;100.00
11038;BME280;5572;49.540;11.932;2023-01-25T09:29:51;97314.78;;;0.49;100.00
11038;BME280;5572;49.540;11.932;2023-01-25T09:32:19;97333.56;;;0.61;100.00
11038;BME280;5572;49.540;11.932;2023-01-25T10:42:30;97231.44;;;1.12;100.00
11038;BME280;5572;49.540;11.932;2023-01-25T10:45:00;97235.69;;;1.19;100.00
11038;BME280;5572;49.540;11.932;2023-01-25T10:47:33;97228.16;;;1.10;100.00
11038;BME280;5572;49.540;11.932;2023-01-25T10:50:04;97210.63;;;1.27;100.00
11038;BME280;5572;49.540;11.932;2023-01-25T10:52:32;97220.44;;;1.02;100.00
11038;BME280;5572;49.540;11.932;2023-01-25T10:55:15;97197.88;;;1.04;100.00
11038;BME280;5572;49.540;11.932;2023-01-25T10:57:52;97197.84;;;0.80;100.00
11038;BME280;5572;49.540;11.932;2023-01-25T11:00:23;97197.19;;;0.84;100.00
11038;BME280;5572;49.540;11.932;2023-01-25T11:02:52;97204.28;;;0.60;100.00
11038;BME280;5572;49.540;11.932;2023-01-25T11:05:31;97186.13;;;0.87;100.00
11038;BME280;5572;49.540;11.932;2023-01-25T11:08:19;97183.03;;;0.90;100.00
11038;BME280;5572;49.540;11.932;2023-01-25T11:10:48;97168.19;;;0.77;100.00
11038;BME280;5572;49.540;11.932;2023-01-25T11:13:21;97187.63;;;1.08;100.00
11038;BME280;5572;49.540;11.932;2023-01-25T11:15:51;97168.56;;;0.80;100.00
11038;BME280;5572;49.540;11.932;2023-01-25T11:18:23;97171.56;;;0.90;100.00
11038;BME280;5572;49.540;11.932;2023-01-25T11:21:09;97167.31;;;0.82;100.00
11038;BME280;5572;49.540;11.932;2023-01-25T11:23:41;97160.91;;;0.96;100.00
11038;BME280;5572;49.540;11.932;2023-01-25T11:26:14;97151.31;;;0.89;100.00
11038;BME280;5572;49.540;11.932;2023-01-25T11:28:45;97134.13;;;0.85;100.00
11038;BME280;5572;49.540;11.932;2023-01-25T11:31:19;97135.25;;;0.78;100.00
11038;BME280;5572;49.540;11.932;2023-01-25T11:33:50;97125.13;;;0.86;100.00
11038;BME280;5572;49.540;11.932;2023-01-25T11:49:44;97069.75;;;1.25;100.00
11038;BME280;5572;49.540;11.932;2023-01-25T11:52:24;97089.22;;;0.71;100.00
11038;BME280;5572;49.540;11.932;2023-01-25T11:55:03;97084.38;;;1.16;100.00
11038;BME280;5572;49.540;11.932;2023-01-25T11:57:51;97058.75;;;0.97;100.00
11038;BME280;5572;49.540;11.932;2023-01-25T12:00:41;97098.75;;;0.84;100.00
11038;BME280;5572;49.540;11.932;2023-01-25T12:03:28;97107.94;;;0.58;100.00
11038;BME280;5572;49.540;11.932;2023-01-25T12:06:06;97083.16;;;0.64;100.00
11038;BME280;5572;49.540;11.932;2023-01-25T12:08:55;97065.81;;;0.85;100.00
11038;BME280;5572;49.540;11.932;2023-01-25T12:11:35;97060.06;;;0.88;100.00
11038;BME280;5572;49.540;11.932;2023-01-25T12:14:11;97057.75;;;1.16;100.00
11038;BME280;5572;49.540;11.932;2023-01-25T12:16:52;97048.78;;;1.35;100.00
11038;BME280;5572;49.540;11.932;2023-01-25T12:19:41;97051.13;;;1.25;100.00
11038;BME280;5572;49.540;11.932;2023-01-25T12:22:30;97037.41;;;1.04;100.00
11038;BME280;5572;49.540;11.932;2023-01-25T12:25:11;97033.78;;;0.98;100.00
11038;BME280;5572;49.540;11.932;2023-01-25T12:27:46;97020.84;;;1.02;100.00
11038;BME280;5572;49.540;11.932;2023-01-25T12:30:21;97011.78;;;1.09;100.00
11038;BME280;5572;49.540;11.932;2023-01-25T12:32:56;96994.53;;;1.12;100.00
11038;BME280;5572;49.540;11.932;2023-01-25T12:35:29;96996.22;;;0.88;100.00
11038;BME280;5572;49.540;11.932;2023-01-25T12:38:02;96991.88;;;1.12;100.00
11038;BME280;5572;49.540;11.932;2023-01-25T12:40:44;96994.06;;;0.97;100.00
11038;BME280;5572;49.540;11.932;2023-01-25T12:43:15;96972.16;;;1.19;100.00
11038;BME280;5572;49.540;11.932;2023-01-25T12:45:45;96979.75;;;1.16;100.00
11038;BME280;5572;49.540;11.932;2023-01-25T12:48:19;96980.09;;;1.01;100.00
11038;BME280;5572;49.540;11.932;2023-01-25T12:50:53;96968.75;;;0.70;100.00
11038;BME280;5572;49.540;11.932;2023-01-25T12:53:24;96971.13;;;0.54;100.00
11038;BME280;5572;49.540;11.932;2023-01-25T12:55:53;96957.69;;;0.49;100.00
11038;BME280;5572;49.540;11.932;2023-01-25T12:58:27;96959.22;;;0.81;100.00
11038;BME280;5572;49.540;11.932;2023-01-25T13:01:01;96953.25;;;0.85;100.00
11038;BME280;5572;49.540;11.932;2023-01-25T13:03:34;96945.47;;;0.83;100.00
11038;BME280;5572;49.540;11.932;2023-01-25T13:06:12;96954.78;;;0.50;100.00
11038;BME280;5572;49.540;11.932;2023-01-25T13:08:52;96937.97;;;0.56;100.00
11038;BME280;5572;49.540;11.932;2023-01-25T13:11:34;96943.59;;;0.66;100.00
11038;BME280;5572;49.540;11.932;2023-01-25T13:14:29;96934.03;;;0.83;100.00
11038;BME280;5572;49.540;11.932;2023-01-25T13:17:10;96934.53;;;0.74;100.00
11038;BME280;5572;49.540;11.932;2023-01-25T13:19:38;96913.72;;;1.24;100.00
11038;BME280;5572;49.540;11.932;2023-01-25T13:22:08;96902.78;;;1.32;100.00
11038;BME280;5572;49.540;11.932;2023-01-25T13:25:07;96920.53;;;1.02;100.00
11038;BME280;5572;49.540;11.932;2023-01-25T13:27:35;96912.94;;;0.64;100.00
11038;BME280;5572;49.540;11.932;2023-01-25T13:30:25;96897.59;;;0.66;100.00
11038;BME280;5572;49.540;11.932;2023-01-25T13:32:55;96913.34;;;0.85;100.00
11038;BME280;5572;49.540;11.932;2023-01-25T13:38:28;96915.78;;;0.69;100.00
11038;BME280;5572;49.540;11.932;2023-01-25T13:41:14;96906.47;;;0.78;100.00
11038;BME280;5572;49.540;11.932;2023-01-25T13:43:45;96901.28;;;0.65;100.00
11038;BME280;5572;49.540;11.932;2023-01-25T13:46:16;96920.56;;;0.60;100.00
11038;BME280;5572;49.540;11.932;2023-01-25T13:48:47;96909.03;;;0.66;100.00
11038;BME280;5572;49.540;11.932;2023-01-25T13:51:17;96897.19;;;0.44;100.00
11038;BME280;5572;49.540;11.932;2023-01-25T13:53:54;96915.22;;;0.60;100.00
11038;BME280;5572;49.540;11.932;2023-01-25T13:56:26;96901.16;;;0.78;100.00
11038;BME280;5572;49.540;11.932;2023-01-25T13:58:53;96892.81;;;0.74;100.00
11038;BME280;5572;49.540;11.932;2023-01-25T14:01:20;96892.22;;;0.72;100.00
11038;BME280;5572;49.540;11.932;2023-01-25T14:03:49;96887.91;;;0.71;100.00
11038;BME280;5572;49.540;11.932;2023-01-25T14:06:18;96896.19;;;0.63;100.00
11038;BME280;5572;49.540;11.932;2023-01-25T14:08:48;96876.38;;;0.77;100.00
11038;BME280;5572;49.540;11.932;2023-01-25T14:11:19;96888.78;;;0.65;100.00
11038;BME280;5572;49.540;11.932;2023-01-25T14:13:59;96870.09;;;0.72;100.00
11038;BME280;5572;49.540;11.932;2023-01-25T14:16:27;96870.03;;;0.60;100.00
11038;BME280;5572;49.540;11.932;2023-01-25T14:18:55;96857.38;;;0.56;100.00
11038;BME280;5572;49.540;11.932;2023-01-25T14:21:22;96869.53;;;0.45;100.00
11038;BME280;5572;49.540;11.932;2023-01-25T14:23:49;96855.03;;;0.48;100.00
11038;BME280;5572;49.540;11.932;2023-01-25T14:26:19;96863.66;;;0.43;100.00
11038;BME280;5572;49.540;11.932;2023-01-25T14:28:48;96885.69;;;0.68;100.00
11038;BME280;5572;49.540;11.932;2023-01-25T14:31:21;96845.97;;;0.91;100.00
11038;BME280;5572;49.540;11.932;2023-01-25T14:33:48;96851.28;;;0.73;100.00
11038;BME280;5572;49.540;11.932;2023-01-25T14:36:23;96842.41;;;0.61;100.00
11038;BME280;5572;49.540;11.932;2023-01-25T14:38:51;96842.22;;;0.56;100.00
11038;BME280;5572;49.540;11.932;2023-01-25T14:41:21;96847.25;;;0.46;100.00
11038;BME280;5572;49.540;11.932;2023-01-25T14:43:50;96828.75;;;0.58;100.00
11038;BME280;5572;49.540;11.932;2023-01-25T14:46:25;96833.59;;;0.61;100.00